Time;durP1;ratioP1;P1;durP2;ratioP2;P2;SDS_P1;SDS_P2;PMS_P1;PMS_P2;Temp;Humidity;BMP_temperature;BMP_pressure;BME280_temperature;BME280_humidity;BME280_pressure;Samples;Min_cycle;Max_cycle;Signal;HPM_P1;HPM_P2
2021/05/05 00:00:45;;;;;;;1999.90;999.90;;;;;;;8.19;100.00;-18128.00;4943409;29;20198;-30
2021/05/05 00:03:31;;;;;;;1999.90;999.90;;;;;;;8.16;100.00;-18127.19;4940709;29;20328;-31
2021/05/05 00:06:21;;;;;;;1999.90;999.90;;;;;;;8.35;100.00;-18132.16;4944156;29;20298;-31
2021/05/05 00:09:07;;;;;;;1999.90;999.90;;;;;;;8.45;100.00;-18134.84;4941688;29;20201;-31
2021/05/05 00:11:55;;;;;;;1999.90;999.90;;;;;;;8.15;100.00;-18126.78;4940754;29;20559;-31
2021/05/05 00:14:49;;;;;;;1999.90;999.90;;;;;;;8.26;100.00;-18129.88;4939917;29;20205;-31
2021/05/05 00:17:34;;;;;;;1999.90;999.90;;;;;;;8.29;100.00;-18130.53;4940104;29;20209;-30
2021/05/05 00:20:21;;;;;;;1999.90;999.90;;;;;;;8.15;100.00;-18126.94;4940663;29;20334;-30
2021/05/05 00:23:09;;;;;;;1999.90;999.90;;;;;;;7.90;100.00;-18120.22;4940477;29;20204;-30
2021/05/05 00:25:54;;;;;;;1999.90;999.90;;;;;;;8.06;100.00;-18124.38;4940480;29;20216;-30
2021/05/05 00:28:40;;;;;;;1999.90;999.90;;;;;;;8.13;100.00;-18126.25;4940390;29;20213;-30
2021/05/05 00:31:28;;;;;;;1999.90;999.90;;;;;;;8.00;100.00;-18122.78;4940072;29;20285;-30
2021/05/05 00:34:13;;;;;;;1999.90;999.90;;;;;;;8.25;100.00;-18129.47;4939529;29;20236;-30
2021/05/05 00:36:59;;;;;;;1999.90;999.90;;;;;;;8.33;100.00;-18131.63;4939683;29;20208;-30
2021/05/05 00:39:46;;;;;;;1999.90;999.90;;;;;;;8.17;100.00;-18127.34;4942664;29;20280;-30
2021/05/05 00:42:32;;;;;;;1999.90;999.90;;;;;;;8.38;100.00;-18132.97;4940999;29;20208;-30
2021/05/05 00:45:18;;;;;;;1999.90;999.90;;;;;;;8.08;100.00;-18125.06;4939317;29;20290;-30
2021/05/05 00:48:08;;;;;;;1999.90;999.90;;;;;;;8.17;100.00;-18127.47;4939589;29;20205;-30
2021/05/05 00:50:58;;;;;;;1999.90;999.90;;;;;;;8.33;100.00;-18131.50;4939259;29;20228;-30
2021/05/05 00:53:44;;;;;;;1999.90;999.90;;;;;;;8.36;100.00;-18132.44;4939132;29;20212;-30
2021/05/05 00:56:34;;;;;;;1999.90;999.90;;;;;;;8.29;100.00;-18130.53;4939035;29;20213;-30
2021/05/05 00:59:19;;;;;;;1999.90;999.90;;;;;;;8.49;100.00;-18135.91;4939172;29;20204;-30
2021/05/05 01:02:06;;;;;;;1999.90;999.90;;;;;;;8.10;100.00;-18125.47;4939553;29;20219;-30
2021/05/05 01:04:53;;;;;;;1999.90;999.90;;;;;;;7.98;100.00;-18122.25;4939322;29;20210;-30
2021/05/05 01:07:39;;;;;;;1999.90;999.90;;;;;;;7.60;100.00;-18112.31;4939043;29;20201;-29
2021/05/05 01:10:25;;;;;;;1999.90;999.90;;;;;;;7.75;100.00;-18116.34;4939065;29;20205;-31
2021/05/05 01:13:14;;;;;;;1999.90;999.90;;;;;;;7.94;100.00;-18121.44;4938991;29;20360;-29
2021/05/05 01:16:05;;;;;;;1999.90;999.90;;;;;;;8.09;100.00;-18125.19;4938891;29;20718;-30
2021/05/05 01:18:52;;;;;;;1999.90;999.90;;;;;;;7.92;100.00;-18120.78;4939036;29;20256;-30
2021/05/05 01:21:40;;;;;;;1999.90;999.90;;;;;;;7.87;100.00;-18119.56;4938841;29;20193;-29
2021/05/05 01:24:27;;;;;;;1999.90;999.90;;;;;;;8.06;100.00;-18124.38;4939016;29;20279;-30
2021/05/05 01:27:13;;;;;;;1999.90;999.90;;;;;;;8.01;100.00;-18123.03;4941975;29;20208;-29
2021/05/05 01:30:00;;;;;;;1999.90;999.90;;;;;;;7.64;100.00;-18113.25;4941939;29;20201;-30
2021/05/05 01:32:46;;;;;;;1999.90;999.90;;;;;;;7.83;100.00;-18118.50;4819965;29;3634575;-30
2021/05/05 01:35:32;;;;;;;1999.90;999.90;;;;;;;7.97;100.00;-18121.97;4943111;29;20288;-30
2021/05/05 01:38:19;;;;;;;1999.90;999.90;;;;;;;7.94;100.00;-18121.44;4943285;29;20224;-30
2021/05/05 01:41:05;;;;;;;1999.90;999.90;;;;;;;7.85;100.00;-18119.03;4943803;29;20235;-30
2021/05/05 01:43:51;;;;;;;1999.90;999.90;;;;;;;7.90;100.00;-18120.22;4942905;29;20203;-30
2021/05/05 01:46:46;;;;;;;1999.90;999.90;;;;;;;7.94;100.00;-18121.31;4942985;29;20204;-30
2021/05/05 01:49:32;;;;;;;1999.90;999.90;;;;;;;7.55;100.00;-18111.00;4944547;29;20577;-30
2021/05/05 01:52:19;;;;;;;1999.90;999.90;;;;;;;8.06;100.00;-18124.53;4945773;29;20220;-30
2021/05/05 01:55:09;;;;;;;1999.90;999.90;;;;;;;7.66;100.00;-18113.81;4942770;29;20269;-30
2021/05/05 01:57:55;;;;;;;1999.90;999.90;;;;;;;7.84;100.00;-18118.75;4942997;29;20224;-30
2021/05/05 02:00:41;;;;;;;1999.90;999.90;;;;;;;7.70;100.00;-18114.88;4942665;29;20199;-30
2021/05/05 02:03:27;;;;;;;1999.90;999.90;;;;;;;7.84;100.00;-18118.63;4942887;29;20267;-30
2021/05/05 02:06:13;;;;;;;1999.90;999.90;;;;;;;7.75;100.00;-18116.22;4945355;29;20232;-30
2021/05/05 02:09:00;;;;;;;1999.90;999.90;;;;;;;7.83;100.00;-18118.34;4943182;29;20206;-30
2021/05/05 02:11:47;;;;;;;1999.90;999.90;;;;;;;7.68;100.00;-18114.34;4943138;29;20235;-30
2021/05/05 02:14:33;;;;;;;1999.90;999.90;;;;;;;7.76;100.00;-18116.63;4943997;29;20224;-30
2021/05/05 02:17:19;;;;;;;1999.90;999.90;;;;;;;7.86;100.00;-18119.16;4942718;29;20205;-30
2021/05/05 02:20:08;;;;;;;1999.90;999.90;;;;;;;8.05;100.00;-18124.13;4942516;29;20576;-30
2021/05/05 02:22:53;;;;;;;1999.90;999.90;;;;;;;7.90;100.00;-18120.38;4951988;29;20253;-30
2021/05/05 02:25:39;;;;;;;1999.90;999.90;;;;;;;7.56;100.00;-18111.25;4944174;29;20196;-30
2021/05/05 02:28:26;;;;;;;1999.90;999.90;;;;;;;7.82;100.00;-18118.22;4942638;29;20205;-29
2021/05/05 02:31:12;;;;;;;1999.90;999.90;;;;;;;7.89;100.00;-18119.97;4941680;29;20224;-30
2021/05/05 02:33:58;;;;;;;1999.90;999.90;;;;;;;7.73;100.00;-18115.81;4945749;29;20248;-30
2021/05/05 02:36:44;;;;;;;1999.90;999.90;;;;;;;7.95;100.00;-18121.56;4943056;29;20626;-30
2021/05/05 02:39:35;;;;;;;1999.90;999.90;;;;;;;7.66;100.00;-18113.94;4948199;29;20619;-29
2021/05/05 02:42:21;;;;;;;1999.90;999.90;;;;;;;7.74;100.00;-18116.09;4941736;29;20472;-30
2021/05/05 02:45:09;;;;;;;1999.90;999.90;;;;;;;8.09;100.00;-18125.19;4942014;29;20356;-30
2021/05/05 02:47:55;;;;;;;1999.90;999.90;;;;;;;8.04;100.00;-18123.97;4942016;29;20495;-30
2021/05/05 02:50:43;;;;;;;1999.90;999.90;;;;;;;7.85;100.00;-18118.88;4946004;29;20208;-30
2021/05/05 02:53:29;;;;;;;1999.90;999.90;;;;;;;7.98;100.00;-18122.38;4942554;29;20336;-30
2021/05/05 02:56:15;;;;;;;1999.90;999.90;;;;;;;7.68;100.00;-18114.34;4945691;29;20370;-30
2021/05/05 02:59:01;;;;;;;1999.90;999.90;;;;;;;7.74;100.00;-18116.09;4942127;29;20222;-30
2021/05/05 03:01:48;;;;;;;1999.90;999.90;;;;;;;7.75;100.00;-18116.34;4941406;29;20201;-30
2021/05/05 03:04:34;;;;;;;1999.90;999.90;;;;;;;7.87;100.00;-18119.44;4941736;29;20216;-30
2021/05/05 03:07:20;;;;;;;1999.90;999.90;;;;;;;7.96;100.00;-18121.84;4941237;29;20207;-30
2021/05/05 03:10:09;;;;;;;1999.90;999.90;;;;;;;7.88;100.00;-18119.69;4942582;29;20284;-30
2021/05/05 03:12:54;;;;;;;1999.90;999.90;;;;;;;7.60;100.00;-18112.31;4944375;29;20401;-30
2021/05/05 03:15:42;;;;;;;1999.90;999.90;;;;;;;7.81;100.00;-18117.81;4940991;29;20612;-30
2021/05/05 03:18:28;;;;;;;1999.90;999.90;;;;;;;7.82;100.00;-18118.09;4941087;29;20296;-30
2021/05/05 03:21:14;;;;;;;1999.90;999.90;;;;;;;7.88;100.00;-18119.69;4941462;29;20200;-30
2021/05/05 03:24:00;;;;;;;1999.90;999.90;;;;;;;7.74;100.00;-18115.94;4941463;29;20716;-30
2021/05/05 03:26:45;;;;;;;1999.90;999.90;;;;;;;7.78;100.00;-18117.03;4941601;29;20492;-30
2021/05/05 03:29:31;;;;;;;1999.90;999.90;;;;;;;7.72;100.00;-18115.53;4944141;29;20667;-30
2021/05/05 03:32:19;;;;;;;1999.90;999.90;;;;;;;7.57;100.00;-18111.53;4940848;29;20331;-30
2021/05/05 03:35:08;;;;;;;1999.90;999.90;;;;;;;7.59;100.00;-18112.19;4940942;29;20306;-30
2021/05/05 03:37:56;;;;;;;1999.90;999.90;;;;;;;7.52;100.00;-18110.19;4940737;29;20313;-30
2021/05/05 03:40:42;;;;;;;1999.90;999.90;;;;;;;7.63;100.00;-18113.13;4940609;29;20210;-30
2021/05/05 03:43:34;;;;;;;1999.90;999.90;;;;;;;7.44;100.00;-18108.03;4943778;29;20254;-30
2021/05/05 03:46:25;;;;;;;1999.90;999.90;;;;;;;7.68;100.00;-18114.47;4941937;29;20275;-30
2021/05/05 03:49:11;;;;;;;1999.90;999.90;;;;;;;7.59;100.00;-18112.06;4940189;29;20497;-30
2021/05/05 03:51:58;;;;;;;1999.90;999.90;;;;;;;7.79;100.00;-18117.28;4940683;29;20231;-30
2021/05/05 03:54:45;;;;;;;1999.90;999.90;;;;;;;7.61;100.00;-18112.59;4940611;29;20303;-30
2021/05/05 03:57:31;;;;;;;1999.90;999.90;;;;;;;7.74;100.00;-18116.09;4940797;29;20203;-30
2021/05/05 04:00:17;;;;;;;1999.90;999.90;;;;;;;7.78;100.00;-18117.03;4941830;29;20208;-30
2021/05/05 04:03:03;;;;;;;1999.90;999.90;;;;;;;7.89;100.00;-18119.97;4942751;29;20197;-30
2021/05/05 04:05:49;;;;;;;1999.90;999.90;;;;;;;7.84;100.00;-18118.63;4941075;29;20352;-30
2021/05/05 04:08:35;;;;;;;1999.90;999.90;;;;;;;7.43;100.00;-18107.91;4940406;29;20211;-30
2021/05/05 04:11:21;;;;;;;1999.90;999.90;;;;;;;7.72;100.00;-18115.53;4940228;29;20244;-30
2021/05/05 04:14:08;;;;;;;1999.90;999.90;;;;;;;7.77;100.00;-18116.88;4940511;29;20205;-30
2021/05/05 04:17:12;;;;;;;1999.90;999.90;;;;;;;7.86;100.00;-18119.16;4944627;29;20551;-30
2021/05/05 04:20:20;;;;;;;1999.90;999.90;;;;;;;7.73;100.00;-18115.69;4949475;29;20213;-30
2021/05/05 04:23:24;;;;;;;1999.90;999.90;;;;;;;7.66;100.00;-18113.94;4940386;29;20265;-30
2021/05/05 04:26:30;;;;;;;1999.90;999.90;;;;;;;7.66;100.00;-18113.94;4941518;29;20200;-30
2021/05/05 04:29:17;;;;;;;1999.90;999.90;;;;;;;7.84;100.00;-18118.75;4939946;29;20201;-30
2021/05/05 04:32:07;;;;;;;1999.90;999.90;;;;;;;7.93;100.00;-18121.03;4940930;29;20626;-30
2021/05/05 04:34:53;;;;;;;1999.90;999.90;;;;;;;7.05;100.00;-18097.72;4941537;29;20200;-30
2021/05/05 04:37:39;;;;;;;1999.90;999.90;;;;;;;6.85;100.00;-18092.47;4940400;29;20216;-30
2021/05/05 04:40:25;;;;;;;1999.90;999.90;;;;;;;6.84;100.00;-18092.22;4942494;29;20291;-30
2021/05/05 04:43:12;;;;;;;1999.90;999.90;;;;;;;6.98;100.00;-18095.97;4940105;29;20199;-29
2021/05/05 04:45:57;;;;;;;1999.90;999.90;;;;;;;6.71;100.00;-18088.72;4939835;29;20212;-29
2021/05/05 04:48:43;;;;;;;1999.90;999.90;;;;;;;6.98;100.00;-18095.97;4942937;29;20196;-28
2021/05/05 04:51:28;;;;;;;1999.90;999.90;;;;;;;6.61;100.00;-18086.19;4939965;29;20663;-29
2021/05/05 04:54:14;;;;;;;1999.90;999.90;;;;;;;6.49;100.00;-18082.97;4940762;29;20204;-29
2021/05/05 04:57:00;;;;;;;1999.90;999.90;;;;;;;6.41;100.00;-18080.94;4940198;29;20260;-29
2021/05/05 04:59:47;;;;;;;1999.90;999.90;;;;;;;6.86;100.00;-18092.88;4939215;29;20497;-28
2021/05/05 05:02:33;;;;;;;1999.90;999.90;;;;;;;6.58;100.00;-18085.38;4943728;29;20622;-28
2021/05/05 05:05:22;;;;;;;1999.90;999.90;;;;;;;6.37;100.00;-18079.75;4941186;29;20276;-28
2021/05/05 05:08:07;;;;;;;1999.90;999.90;;;;;;;6.11;100.00;-18072.91;4941013;29;20232;-28
2021/05/05 05:10:54;;;;;;;1999.90;999.90;;;;;;;6.23;100.00;-18076.13;4940363;29;20209;-28
2021/05/05 05:13:40;;;;;;;1999.90;999.90;;;;;;;6.13;100.00;-18073.44;4942355;29;20208;-28
2021/05/05 05:16:27;;;;;;;1999.90;999.90;;;;;;;5.86;100.00;-18066.31;4940194;29;20204;-28
2021/05/05 05:19:16;;;;;;;1999.90;999.90;;;;;;;6.13;100.00;-18073.44;4940336;29;20224;-28
2021/05/05 05:22:03;;;;;;;1999.90;999.90;;;;;;;6.07;100.00;-18071.84;4941410;29;20204;-28
2021/05/05 05:24:50;;;;;;;1999.90;999.90;;;;;;;5.57;100.00;-18058.53;4941929;29;20276;-29
2021/05/05 05:27:38;;;;;;;1999.90;999.90;;;;;;;5.95;100.00;-18068.63;4940091;29;20535;-28
2021/05/05 05:30:27;;;;;;;1999.90;999.90;;;;;;;5.72;100.00;-18062.56;4940655;29;20647;-28
2021/05/05 05:33:14;;;;;;;1999.90;999.90;;;;;;;5.84;100.00;-18065.78;4940276;29;20528;-28
2021/05/05 05:36:00;;;;;;;1999.90;999.90;;;;;;;6.01;100.00;-18070.22;4941513;29;20200;-29
2021/05/05 05:38:46;;;;;;;1999.90;999.90;;;;;;;6.21;100.00;-18075.72;4942021;29;20205;-28
2021/05/05 05:41:32;;;;;;;1999.90;999.90;;;;;;;6.29;100.00;-18077.72;4941892;29;20204;-28
2021/05/05 05:44:18;;;;;;;1999.90;999.90;;;;;;;6.18;100.00;-18074.91;4939848;29;20203;-28
2021/05/05 05:47:04;;;;;;;1999.90;999.90;;;;;;;6.38;100.00;-18080.16;4939618;29;20311;-28
2021/05/05 05:49:53;;;;;;;1999.90;999.90;;;;;;;6.26;100.00;-18076.78;4940270;29;20201;-28
2021/05/05 05:52:40;;;;;;;1999.90;999.90;;;;;;;6.18;100.00;-18074.78;4940268;29;20409;-28
2021/05/05 05:55:29;;;;;;;1999.90;999.90;;;;;;;6.22;100.00;-18075.84;4940856;29;20257;-28
2021/05/05 05:58:15;;;;;;;1999.90;999.90;;;;;;;6.44;100.00;-18081.63;4940339;29;20200;-28
2021/05/05 06:01:01;;;;;;;1999.90;999.90;;;;;;;6.41;100.00;-18080.81;4939404;29;20268;-28
2021/05/05 06:03:47;;;;;;;1999.90;999.90;;;;;;;6.59;100.00;-18085.66;4939457;29;20305;-28
2021/05/05 06:06:34;;;;;;;1999.90;999.90;;;;;;;6.61;100.00;-18086.19;4940004;29;20684;-28
2021/05/05 06:09:20;;;;;;;1999.90;999.90;;;;;;;7.09;100.00;-18098.78;4940593;29;20226;-28
2021/05/05 06:12:07;;;;;;;1999.90;999.90;;;;;;;7.12;100.00;-18099.72;4942369;29;20225;-28
2021/05/05 06:14:54;;;;;;;1999.90;999.90;;;;;;;7.24;100.00;-18102.94;4943319;29;20670;-28
2021/05/05 06:17:44;;;;;;;1999.90;999.90;;;;;;;6.92;100.00;-18094.38;4943923;29;20479;-28
2021/05/05 06:20:29;;;;;;;1999.90;999.90;;;;;;;6.97;100.00;-18095.56;4942543;29;20542;-29
2021/05/05 06:23:17;;;;;;;1999.90;999.90;;;;;;;6.76;100.00;-18090.06;4943448;29;20355;-28
2021/05/05 06:26:03;;;;;;;1999.90;999.90;;;;;;;6.74;100.00;-18089.53;4947521;29;20243;-28
2021/05/05 06:28:49;;;;;;;1999.90;999.90;;;;;;;6.72;100.00;-18089.00;4943238;29;20283;-28
2021/05/05 06:31:37;;;;;;;1999.90;999.90;;;;;;;6.78;100.00;-18090.75;4942727;29;20196;-28
2021/05/05 06:34:25;;;;;;;1999.90;999.90;;;;;;;7.01;100.00;-18096.78;4941609;29;20236;-28
2021/05/05 06:37:16;;;;;;;1999.90;999.90;;;;;;;7.13;100.00;-18100.00;4942841;29;20299;-29
2021/05/05 06:40:04;;;;;;;1999.90;999.90;;;;;;;7.20;100.00;-18101.88;4945435;29;20272;-28
2021/05/05 06:42:53;;;;;;;1999.90;999.90;;;;;;;7.94;100.00;-18121.44;4942712;29;20197;-28
2021/05/05 06:45:39;;;;;;;1999.90;999.90;;;;;;;8.88;100.00;-18146.09;4943564;29;20573;-28
2021/05/05 06:48:25;;;;;;;1999.90;999.90;;;;;;;9.10;100.00;-18151.84;4941576;29;20204;-28
2021/05/05 06:51:11;;;;;;;1999.90;999.90;;;;;;;10.14;100.00;-18179.28;4942051;29;20599;-29
2021/05/05 06:53:59;;;;;;;1999.90;999.90;;;;;;;9.75;100.00;-18169.09;4941642;29;20196;-29
2021/05/05 06:56:48;;;;;;;1999.90;999.90;;;;;;;8.91;100.00;-18147.03;4940741;29;20219;-28
2021/05/05 06:59:38;;;;;;;1999.90;999.90;;;;;;;7.58;100.00;-18111.94;4945873;29;20250;-30
2021/05/05 07:02:32;;;;;;;1999.90;999.90;;;;;;;7.29;100.00;-18104.00;4941843;29;20475;-29
2021/05/05 07:05:23;;;;;;;1999.90;999.90;;;;;;;7.59;100.00;-18112.19;4942775;29;20209;-28
2021/05/05 07:08:09;;;;;;;1999.90;999.90;;;;;;;7.76;100.00;-18116.63;4941626;29;20640;-29
2021/05/05 07:10:55;;;;;;;1999.90;999.90;;;;;;;7.75;100.00;-18116.22;4947755;29;20200;-29
2021/05/05 07:13:47;;;;;;;1999.90;999.90;;;;;;;9.25;100.00;-18156.00;4941672;29;20345;-29
2021/05/05 07:16:34;;;;;;;1999.90;999.90;;;;;;;9.70;100.00;-18167.78;4941747;29;20208;-29
2021/05/05 07:19:21;;;;;;;1999.90;999.90;;;;;;;9.26;100.00;-18156.25;4940761;29;20623;-28
2021/05/05 07:22:09;;;;;;;1999.90;999.90;;;;;;;8.64;100.00;-18139.94;4945127;29;20212;-29
2021/05/05 07:24:55;;;;;;;1999.90;999.90;;;;;;;8.41;100.00;-18133.75;4940554;29;20204;-29
2021/05/05 07:27:42;;;;;;;1999.90;999.90;;;;;;;8.33;100.00;-18131.63;4943783;29;20282;-29
2021/05/05 07:30:29;;;;;;;1999.90;999.90;;;;;;;8.08;100.00;-18125.06;4941355;29;20201;-29
2021/05/05 07:33:15;;;;;;;1999.90;999.90;;;;;;;8.29;100.00;-18130.69;4941495;29;20288;-29
2021/05/05 07:36:01;;;;;;;1999.90;999.90;;;;;;;8.10;100.00;-18125.59;4941392;29;20204;-29
2021/05/05 07:39:03;;;;;;;1999.90;999.90;;;;;;;7.76;100.00;-18116.47;4948131;29;20320;-29
2021/05/05 07:48:00;;;;;;;1999.90;999.90;;;;;;;7.73;100.00;-18115.81;4941616;29;20253;-29
2021/05/05 07:50:46;;;;;;;1999.90;999.90;;;;;;;7.62;100.00;-18112.84;4943842;29;20678;-29
2021/05/05 07:53:31;;;;;;;1999.90;999.90;;;;;;;7.74;100.00;-18116.09;4941265;29;20232;-29
2021/05/05 07:56:17;;;;;;;1999.90;999.90;;;;;;;7.74;100.00;-18116.09;4942168;29;20200;-29
2021/05/05 07:59:02;;;;;;;1999.90;999.90;;;;;;;8.22;100.00;-18128.81;4940748;29;20532;-29
2021/05/05 08:01:48;;;;;;;1999.90;999.90;;;;;;;9.13;100.00;-18152.66;4940904;29;20786;-29
2021/05/05 08:04:35;;;;;;;1999.90;999.90;;;;;;;10.66;100.00;-18193.06;4945844;29;20204;-29
2021/05/05 08:07:23;;;;;;;1999.90;999.90;;;;;;;10.35;100.00;-18185.03;4940271;29;20208;-30
2021/05/05 08:10:12;;;;;;;1999.90;999.90;;;;;;;10.64;100.00;-18192.66;4940331;29;20297;-29
2021/05/05 08:12:58;;;;;;;1999.90;999.90;;;;;;;10.93;100.00;-18200.13;4939937;29;20232;-29
2021/05/05 08:15:48;;;;;;;1999.90;999.90;;;;;;;10.19;100.00;-18180.63;4938935;29;20200;-30
2021/05/05 08:18:35;;;;;;;1999.90;999.90;;;;;;;11.19;100.00;-18207.09;4939744;29;20196;-30
2021/05/05 08:21:26;;;;;;;1999.90;999.90;;;;;;;9.06;100.00;-18150.78;4938803;29;20341;-30
2021/05/05 08:24:15;;;;;;;1999.90;999.90;;;;;;;10.29;100.00;-18183.28;4941444;29;20520;-29
2021/05/05 08:27:06;;;;;;;1999.90;999.90;;;;;;;9.92;100.00;-18173.53;5368751;23;20199;31
2021/05/05 08:29:52;;;;;;;1999.90;999.90;;;;;;;9.12;100.00;-18152.38;4919320;29;20652;-30
2021/05/05 08:32:38;;;;;;;1999.90;999.90;;;;;;;9.08;100.00;-18151.31;4921242;29;20500;-30
2021/05/05 08:35:24;;;;;;;1999.90;999.90;;;;;;;9.37;100.00;-18159.06;4922786;29;20205;-31
2021/05/05 08:38:12;;;;;;;1999.90;999.90;;;;;;;9.11;100.00;-18152.25;4920811;29;20201;-30
2021/05/05 08:41:08;;;;;;;1999.90;999.90;;;;;;;8.21;100.00;-18128.41;4921402;29;20197;-30
2021/05/05 08:44:03;;;;;;;1999.90;999.90;;;;;;;8.33;100.00;-18131.63;4921197;29;20204;-32
2021/05/05 08:46:55;;;;;;;1999.90;999.90;;;;;;;8.96;100.00;-18148.22;4920316;29;20208;-31
2021/05/05 08:49:42;;;;;;;1999.90;999.90;;;;;;;9.69;100.00;-18167.50;4922090;29;20205;-31
2021/05/05 08:52:27;;;;;;;1999.90;999.90;;;;;;;10.58;100.00;-18190.91;4920361;29;20236;-31
2021/05/05 08:55:15;;;;;;;1999.90;999.90;;;;;;;10.21;100.00;-18181.16;4922660;29;20209;-30
2021/05/05 08:58:05;;;;;;;1999.90;999.90;;;;;;;9.31;100.00;-18157.47;4922517;29;20221;-30
2021/05/05 09:00:56;;;;;;;1999.90;999.90;;;;;;;9.13;100.00;-18152.78;4920699;29;20233;-30
2021/05/05 09:03:44;;;;;;;1999.90;999.90;;;;;;;8.74;100.00;-18142.47;4912536;29;20213;-31
2021/05/05 09:06:48;;;;;;;1999.90;999.90;;;;;;;9.16;100.00;-18153.44;4922666;29;20208;-31
2021/05/05 09:09:37;;;;;;;1999.90;999.90;;;;;;;9.60;100.00;-18165.09;4920890;29;20533;-31
2021/05/05 09:12:25;;;;;;;1999.90;999.90;;;;;;;9.45;100.00;-18161.06;4921244;29;20229;-31
2021/05/05 09:15:14;;;;;;;1999.90;999.90;;;;;;;9.15;100.00;-18153.31;4921983;29;20205;-31
2021/05/05 09:18:00;;;;;;;1999.90;999.90;;;;;;;9.06;100.00;-18150.78;4924185;29;20248;-31
2021/05/05 09:20:45;;;;;;;1999.90;999.90;;;;;;;9.31;100.00;-18157.59;4921888;29;20224;-31
2021/05/05 09:23:32;;;;;;;1999.90;999.90;;;;;;;9.21;100.00;-18154.78;4921103;29;20304;-31
2021/05/05 09:26:36;;;;;;;1999.90;999.90;;;;;;;8.91;100.00;-18146.88;4920871;29;20261;-31
2021/05/05 09:29:38;;;;;;;1999.90;999.90;;;;;;;9.17;100.00;-18153.84;4921684;29;20715;-30
2021/05/05 09:32:24;;;;;;;1999.90;999.90;;;;;;;9.59;100.00;-18164.81;4921051;29;20283;-31
2021/05/05 09:35:16;;;;;;;1999.90;999.90;;;;;;;9.66;100.00;-18166.69;4920550;29;20201;-31
2021/05/05 09:38:08;;;;;;;1999.90;999.90;;;;;;;10.08;100.00;-18177.66;4924646;29;20683;-30
2021/05/05 09:40:56;;;;;;;1999.90;999.90;;;;;;;10.29;100.00;-18183.41;4902102;29;20209;-30
2021/05/05 09:43:42;;;;;;;1999.90;999.90;;;;;;;10.11;100.00;-18178.59;4901158;29;20363;-31
2021/05/05 09:46:42;;;;;;;1999.90;999.90;;;;;;;10.88;100.00;-18198.78;4902105;29;20213;-31
2021/05/05 09:49:32;;;;;;;1999.90;999.90;;;;;;;10.06;100.00;-18177.13;4905538;29;20625;-31
2021/05/05 09:52:29;;;;;;;1999.90;999.90;;;;;;;11.09;100.00;-18204.28;4904987;29;20218;-31
2021/05/05 09:55:19;;;;;;;1999.90;999.90;;;;;;;11.20;100.00;-18207.22;4906575;29;20339;-31
2021/05/05 09:58:24;;;;;;;1999.90;999.90;;;;;;;11.28;100.00;-18209.50;4912737;29;20210;-32
2021/05/05 10:01:21;;;;;;;1999.90;999.90;;;;;;;11.67;100.00;-18219.63;4927905;29;20505;-31
2021/05/05 10:04:20;;;;;;;1999.90;999.90;;;;;;;11.45;100.00;-18213.91;4924435;29;20282;-31
2021/05/05 10:07:08;;;;;;;1999.90;999.90;;;;;;;11.25;100.00;-18208.69;4924292;29;20202;-31
2021/05/05 10:09:54;;;;;;;1999.90;999.90;;;;;;;11.49;100.00;-18214.97;4924060;29;20211;-31
2021/05/05 10:12:40;;;;;;;1999.90;999.90;;;;;;;10.68;100.00;-18193.72;4923634;29;20334;-30
2021/05/05 10:15:27;;;;;;;1999.90;999.90;;;;;;;10.23;100.00;-18181.69;4923310;29;20232;-31
2021/05/05 10:18:15;;;;;;;1999.90;999.90;;;;;;;10.84;100.00;-18197.84;4928343;29;20205;-31
2021/05/05 10:21:02;;;;;;;1999.90;999.90;;;;;;;10.12;100.00;-18178.75;4924074;29;20217;-31
2021/05/05 10:23:53;;;;;;;1999.90;999.90;;;;;;;10.78;100.00;-18196.13;4923499;29;20648;-31
2021/05/05 10:26:41;;;;;;;1999.90;999.90;;;;;;;10.14;100.00;-18179.41;4924348;29;20221;-31
2021/05/05 10:29:28;;;;;;;1999.90;999.90;;;;;;;9.78;100.00;-18169.78;4922868;29;20761;-30
2021/05/05 10:32:18;;;;;;;1999.90;999.90;;;;;;;9.91;100.00;-18173.25;4923004;29;20208;-30
2021/05/05 10:35:12;;;;;;;1999.90;999.90;;;;;;;9.27;100.00;-18156.41;4924263;29;20204;-32
2021/05/05 10:38:03;;;;;;;1999.90;999.90;;;;;;;8.64;100.00;-18139.94;4923657;29;20204;-30
2021/05/05 10:41:11;;;;;;;1999.90;999.90;;;;;;;7.37;100.00;-18106.16;4924235;29;20634;-30
2021/05/05 10:43:59;;;;;;;1999.90;999.90;;;;;;;7.34;100.00;-18105.50;4923744;29;20217;-31
2021/05/05 10:46:45;;;;;;;1999.90;999.90;;;;;;;7.25;100.00;-18103.22;4924190;29;20257;-30
2021/05/05 10:49:32;;;;;;;1999.90;999.90;;;;;;;9.30;100.00;-18157.19;4923530;29;20202;-31
2021/05/05 10:52:21;;;;;;;1999.90;999.90;;;;;;;10.80;100.00;-18196.66;4923878;29;20265;-31
2021/05/05 10:55:10;;;;;;;1999.90;999.90;;;;;;;10.43;100.00;-18187.03;4924047;29;20621;-31
2021/05/05 10:58:09;;;;;;;1999.90;999.90;;;;;;;10.73;100.00;-18194.91;4923247;29;20353;-30
2021/05/05 11:01:05;;;;;;;1999.90;999.90;;;;;;;10.84;100.00;-18197.84;4925352;29;20197;-29
2021/05/05 11:03:55;;;;;;;1999.90;999.90;;;;;;;12.12;100.00;-18231.41;4924077;29;20202;-29
2021/05/05 11:06:57;;;;;;;1999.90;999.90;;;;;;;11.87;100.00;-18225.00;4926229;29;20219;-32
2021/05/05 11:09:47;;;;;;;1999.90;999.90;;;;;;;11.05;100.00;-18203.34;4924871;29;20215;-29
2021/05/05 11:12:43;;;;;;;1999.90;999.90;;;;;;;11.05;100.00;-18203.47;4925781;29;20385;-32
2021/05/05 11:15:55;;;;;;;1999.90;999.90;;;;;;;11.26;100.00;-18208.81;4913421;29;20294;-30
2021/05/05 11:18:47;;;;;;;1999.90;999.90;;;;;;;11.74;100.00;-18221.66;4924581;29;20338;-30
2021/05/05 11:21:42;;;;;;;1999.90;999.90;;;;;;;10.99;100.00;-18201.88;4924286;29;20627;-30
2021/05/05 11:24:31;;;;;;;1999.90;999.90;;;;;;;10.08;100.00;-18177.66;4924725;29;20608;-30
2021/05/05 11:27:19;;;;;;;1999.90;999.90;;;;;;;9.61;100.00;-18165.34;4922601;29;20212;-30
2021/05/05 11:30:40;;;;;;;1999.90;999.90;;;;;;;8.43;100.00;-18134.31;4924441;29;20209;-29
2021/05/05 11:33:26;;;;;;;1999.90;999.90;;;;;;;7.92;100.00;-18120.78;4922972;29;20559;-29
2021/05/05 11:36:18;;;;;;;1999.90;999.90;;;;;;;7.73;100.00;-18115.69;4922078;29;20217;-29
2021/05/05 11:39:04;;;;;;;1999.90;999.90;;;;;;;7.38;100.00;-18106.56;4922197;29;20206;-29
2021/05/05 11:41:56;;;;;;;1999.90;999.90;;;;;;;7.44;100.00;-18108.16;4923143;29;20285;-29
2021/05/05 11:44:48;;;;;;;1999.90;999.90;;;;;;;7.98;100.00;-18122.38;4925149;29;20223;-29
2021/05/05 11:47:36;;;;;;;1999.90;999.90;;;;;;;8.68;100.00;-18140.72;4922320;29;20311;-30
2021/05/05 11:50:26;;;;;;;1999.90;999.90;;;;;;;9.75;100.00;-18169.09;4922137;29;20616;-30
2021/05/05 11:53:12;;;;;;;1999.90;999.90;;;;;;;9.81;100.00;-18170.72;4903066;29;20352;-29
2021/05/05 11:55:58;;;;;;;1999.90;999.90;;;;;;;10.06;100.00;-18177.13;4903020;29;20266;-30
2021/05/05 11:58:53;;;;;;;1999.90;999.90;;;;;;;10.61;100.00;-18191.84;4905502;29;20206;-29
2021/05/05 12:01:39;;;;;;;1999.90;999.90;;;;;;;12.12;100.00;-18231.41;4922608;29;20208;-30
2021/05/05 12:04:37;;;;;;;1999.90;999.90;;;;;;;11.94;100.00;-18226.88;4922004;29;20200;-30
2021/05/05 12:07:22;;;;;;;1999.90;999.90;;;;;;;13.06;100.00;-18256.34;4904698;29;20309;-30
2021/05/05 12:10:12;;;;;;;1999.90;999.90;;;;;;;13.21;100.00;-18260.22;4902234;29;20242;-30
2021/05/05 12:13:03;;;;;;;1999.90;999.90;;;;;;;12.94;100.00;-18253.03;4907142;29;20233;-30
2021/05/05 12:15:58;;;;;;;1999.90;999.90;;;;;;;12.30;100.00;-18236.34;4913523;29;20205;-31
2021/05/05 12:18:50;;;;;;;1999.90;999.90;;;;;;;10.67;100.00;-18193.44;4921703;29;20248;-31
2021/05/05 12:21:42;;;;;;;1999.90;999.90;;;;;;;9.82;100.00;-18170.84;4921123;29;20230;-29
2021/05/05 12:24:28;;;;;;;1999.90;999.90;;;;;;;7.89;100.00;-18120.09;4920541;29;20608;-30